Time;durP1;ratioP1;P1;durP2;ratioP2;P2;SDS_P1;SDS_P2;PMS_P1;PMS_P2;Temp;Humidity;BMP_temperature;BMP_pressure;BME280_temperature;BME280_humidity;BME280_pressure;Samples;Min_cycle;Max_cycle;Signal;HPM_P1;HPM_P2
2022/09/16 00:00:15;;;;;;;;;;;13.10;99.90;;;;;;4981639;28;19965;-67
2022/09/16 00:02:43;;;;;;;;;;;13.10;99.90;;;;;;4983502;28;19926;-67
2022/09/16 00:05:10;;;;;;;;;;;13.00;99.90;;;;;;4981029;28;19953;-69
2022/09/16 00:07:36;;;;;;;;;;;13.00;99.90;;;;;;4993513;28;20048;-66
2022/09/16 00:10:03;;;;;;;;;;;13.00;99.90;;;;;;4993277;28;20024;-67
2022/09/16 00:12:30;;;;;;;;;;;12.90;99.90;;;;;;4993952;28;19972;-67
2022/09/16 00:14:56;;;;;;;;;;;12.90;99.90;;;;;;4982407;28;19988;-68
2022/09/16 00:17:23;;;;;;;;;;;12.80;99.90;;;;;;4976117;28;19988;-67
2022/09/16 00:19:51;;;;;;;;;;;12.80;99.90;;;;;;4993082;28;19933;-67
2022/09/16 00:22:18;;;;;;;;;;;12.70;99.90;;;;;;4976991;28;19925;-66
2022/09/16 00:24:44;;;;;;;;;;;12.70;99.90;;;;;;4973552;28;20040;-67
2022/09/16 00:27:11;;;;;;;;;;;12.70;99.90;;;;;;4980783;28;20020;-67
2022/09/16 00:29:38;;;;;;;;;;;12.60;99.90;;;;;;4981428;28;19926;-67
2022/09/16 00:32:04;;;;;;;;;;;12.60;99.90;;;;;;4980257;28;20063;-66
2022/09/16 00:34:31;;;;;;;;;;;12.60;99.90;;;;;;4979030;28;20383;-67
2022/09/16 00:37:02;;;;;;;;;;;12.60;99.90;;;;;;4992687;28;19981;-67
2022/09/16 00:39:28;;;;;;;;;;;12.60;99.90;;;;;;4979902;28;19926;-67
2022/09/16 00:41:55;;;;;;;;;;;12.60;99.90;;;;;;4979863;28;19926;-66
2022/09/16 00:44:41;;;;;;;;;;;12.70;99.90;;;;;;4975601;28;20016;-67
2022/09/16 00:47:07;;;;;;;;;;;12.80;99.90;;;;;;4977490;28;19926;-66
2022/09/16 00:49:34;;;;;;;;;;;12.80;99.90;;;;;;4979694;28;20282;-67
2022/09/16 00:52:05;;;;;;;;;;;12.80;99.90;;;;;;4984704;28;19992;-66
2022/09/16 00:54:32;;;;;;;;;;;12.70;99.90;;;;;;4979136;28;19937;-68
2022/09/16 00:57:00;;;;;;;;;;;12.70;99.90;;;;;;4982365;28;19932;-67
2022/09/16 00:59:28;;;;;;;;;;;12.60;99.90;;;;;;4979066;28;19937;-67
2022/09/16 01:01:56;;;;;;;;;;;12.60;99.90;;;;;;4991779;28;20427;-68
2022/09/16 01:04:25;;;;;;;;;;;12.50;99.90;;;;;;4976990;28;19985;-68
2022/09/16 01:06:52;;;;;;;;;;;12.50;99.90;;;;;;4976339;28;19930;-68
2022/09/16 01:09:21;;;;;;;;;;;12.60;99.90;;;;;;4983576;28;19926;-68
2022/09/16 01:11:49;;;;;;;;;;;12.50;99.90;;;;;;4975894;28;19933;-67
2022/09/16 01:17:03;;;;;;;;;;;12.60;99.90;;;;;;4987335;28;19930;-68
2022/09/16 01:19:36;;;;;;;;;;;12.60;99.90;;;;;;4976401;28;19976;-68
2022/09/16 01:22:07;;;;;;;;;;;12.60;99.90;;;;;;4976420;28;19925;-68
2022/09/16 01:24:44;;;;;;;;;;;12.60;99.90;;;;;;4978709;28;19926;-68
2022/09/16 01:27:21;;;;;;;;;;;12.60;99.90;;;;;;4974245;28;19925;-68
2022/09/16 01:29:56;;;;;;;;;;;12.70;99.90;;;;;;4980665;28;19934;-68
2022/09/16 01:32:28;;;;;;;;;;;12.70;99.90;;;;;;4982904;28;19929;-68
2022/09/16 01:35:01;;;;;;;;;;;12.70;99.90;;;;;;4978581;28;19926;-68
2022/09/16 01:37:31;;;;;;;;;;;12.70;99.90;;;;;;4971695;28;19933;-67
2022/09/16 01:40:03;;;;;;;;;;;12.70;99.90;;;;;;4974926;28;19933;-68
2022/09/16 01:42:37;;;;;;;;;;;12.70;99.90;;;;;;4981539;28;19926;-68
2022/09/16 01:45:06;;;;;;;;;;;12.70;99.90;;;;;;4976119;28;19976;-68
2022/09/16 01:47:38;;;;;;;;;;;12.70;99.90;;;;;;4974203;28;20353;-68
2022/09/16 01:50:08;;;;;;;;;;;12.60;99.90;;;;;;4978090;28;19933;-68
2022/09/16 01:52:39;;;;;;;;;;;12.60;99.90;;;;;;4978415;28;19932;-68
2022/09/16 01:55:07;;;;;;;;;;;12.50;99.90;;;;;;4979444;28;19930;-68
2022/09/16 01:57:37;;;;;;;;;;;12.50;99.90;;;;;;4983332;28;20451;-68
2022/09/16 02:00:06;;;;;;;;;;;12.50;99.90;;;;;;4979982;28;19925;-68
2022/09/16 02:02:37;;;;;;;;;;;12.50;99.90;;;;;;4982932;28;19926;-68
2022/09/16 02:05:08;;;;;;;;;;;12.50;99.90;;;;;;4987387;28;19929;-68
2022/09/16 02:07:36;;;;;;;;;;;12.50;99.90;;;;;;4978510;28;19933;-68
2022/09/16 02:10:07;;;;;;;;;;;12.40;99.90;;;;;;4984141;28;19926;-68
2022/09/16 02:12:34;;;;;;;;;;;12.40;99.90;;;;;;4979294;28;19926;-68
2022/09/16 02:15:04;;;;;;;;;;;12.30;99.90;;;;;;4980269;28;19929;-68
2022/09/16 02:17:33;;;;;;;;;;;12.30;99.90;;;;;;4990229;28;19932;-68
2022/09/16 02:20:03;;;;;;;;;;;12.30;99.90;;;;;;4977265;28;20001;-68
2022/09/16 02:22:32;;;;;;;;;;;12.30;99.90;;;;;;4978691;28;19925;-68
2022/09/16 02:24:59;;;;;;;;;;;12.30;99.90;;;;;;4991361;28;20038;-67
2022/09/16 02:27:27;;;;;;;;;;;12.30;99.90;;;;;;4982427;28;19929;-66
2022/09/16 02:29:56;;;;;;;;;;;12.40;99.90;;;;;;4972548;28;19926;-67
2022/09/16 02:32:25;;;;;;;;;;;12.40;99.90;;;;;;4974237;28;20336;-67
2022/09/16 02:34:53;;;;;;;;;;;12.50;99.90;;;;;;4989767;28;19984;-68
2022/09/16 02:37:24;;;;;;;;;;;12.50;99.90;;;;;;4981568;28;19961;-68
2022/09/16 02:39:53;;;;;;;;;;;12.50;99.90;;;;;;4981452;28;19965;-67
2022/09/16 02:42:20;;;;;;;;;;;12.50;99.90;;;;;;4983600;28;19965;-67
2022/09/16 02:44:47;;;;;;;;;;;12.50;99.90;;;;;;4994608;28;20464;-68
2022/09/16 02:47:16;;;;;;;;;;;12.50;99.90;;;;;;4984719;28;20351;-67
2022/09/16 02:49:48;;;;;;;;;;;12.50;99.90;;;;;;4983556;28;19926;-68
2022/09/16 02:52:18;;;;;;;;;;;12.50;99.90;;;;;;4984647;28;20389;-67
2022/09/16 02:54:49;;;;;;;;;;;12.40;99.90;;;;;;4982327;28;19933;-68
2022/09/16 02:57:16;;;;;;;;;;;12.40;99.90;;;;;;4984734;28;19961;-66
2022/09/16 02:59:44;;;;;;;;;;;12.40;99.90;;;;;;4982528;28;19980;-68
2022/09/16 03:02:11;;;;;;;;;;;12.40;99.90;;;;;;4982223;28;19988;-68
2022/09/16 03:04:38;;;;;;;;;;;12.40;99.90;;;;;;4983796;28;19980;-68
2022/09/16 03:07:05;;;;;;;;;;;12.30;99.90;;;;;;4982790;28;19926;-68
2022/09/16 03:09:34;;;;;;;;;;;12.30;99.90;;;;;;4983307;28;19926;-68
2022/09/16 03:12:07;;;;;;;;;;;12.30;99.90;;;;;;4978510;28;19980;-67
2022/09/16 03:14:39;;;;;;;;;;;12.30;99.90;;;;;;4983527;28;19932;-68
2022/09/16 03:17:15;;;;;;;;;;;12.30;99.90;;;;;;4978886;28;19981;-68
2022/09/16 03:19:46;;;;;;;;;;;12.30;99.90;;;;;;4978893;28;19933;-68
2022/09/16 03:22:18;;;;;;;;;;;12.30;99.90;;;;;;4982324;28;19929;-68
2022/09/16 03:24:53;;;;;;;;;;;12.30;99.90;;;;;;4982612;28;20336;-68
2022/09/16 03:27:28;;;;;;;;;;;12.40;99.90;;;;;;4984079;28;19953;-66
2022/09/16 03:29:57;;;;;;;;;;;12.30;99.90;;;;;;4979607;28;19925;-68
2022/09/16 03:32:25;;;;;;;;;;;12.40;99.90;;;;;;4977809;28;19926;-68
2022/09/16 03:34:54;;;;;;;;;;;12.50;99.90;;;;;;4997025;28;19926;-68
2022/09/16 03:37:22;;;;;;;;;;;12.50;99.90;;;;;;4987803;28;20344;-67
2022/09/16 03:39:52;;;;;;;;;;;12.50;99.90;;;;;;4993896;28;19972;-68
2022/09/16 03:42:19;;;;;;;;;;;12.50;99.90;;;;;;4982364;28;19925;-68
2022/09/16 03:44:47;;;;;;;;;;;12.50;99.90;;;;;;4980721;28;19929;-67
2022/09/16 03:47:15;;;;;;;;;;;12.60;99.90;;;;;;4983707;28;20393;-66
2022/09/16 03:49:42;;;;;;;;;;;12.50;99.90;;;;;;4980778;28;20335;-68
2022/09/16 03:52:08;;;;;;;;;;;12.50;99.90;;;;;;4978812;28;19932;-67
2022/09/16 03:54:36;;;;;;;;;;;12.40;99.90;;;;;;4976107;28;20401;-67
2022/09/16 03:57:03;;;;;;;;;;;12.30;99.90;;;;;;4976738;28;19925;-67
2022/09/16 03:59:31;;;;;;;;;;;12.30;99.90;;;;;;4976956;28;19926;-68
2022/09/16 04:01:59;;;;;;;;;;;12.20;99.90;;;;;;4980124;28;20384;-68
2022/09/16 04:04:26;;;;;;;;;;;12.10;99.90;;;;;;4986126;28;20344;-67
2022/09/16 04:06:52;;;;;;;;;;;12.00;99.90;;;;;;4976534;28;19925;-67
2022/09/16 04:09:19;;;;;;;;;;;12.00;99.90;;;;;;4983287;28;19930;-67
2022/09/16 04:11:46;;;;;;;;;;;12.00;99.90;;;;;;4980949;28;19929;-69
2022/09/16 04:14:13;;;;;;;;;;;12.00;99.90;;;;;;4984103;28;20412;-67
2022/09/16 04:16:40;;;;;;;;;;;12.10;99.90;;;;;;4981648;28;19940;-67
2022/09/16 04:19:08;;;;;;;;;;;12.10;99.90;;;;;;4980082;28;19929;-67
2022/09/16 04:21:35;;;;;;;;;;;12.20;99.90;;;;;;4981698;28;19933;-66
2022/09/16 04:24:02;;;;;;;;;;;12.30;99.90;;;;;;4981203;28;19937;-67
2022/09/16 04:26:29;;;;;;;;;;;12.40;99.90;;;;;;4982580;28;19976;-67
2022/09/16 04:28:55;;;;;;;;;;;12.40;99.90;;;;;;4975055;28;19926;-67
2022/09/16 04:31:22;;;;;;;;;;;12.40;99.90;;;;;;4977816;28;19925;-67
2022/09/16 04:33:49;;;;;;;;;;;12.40;99.90;;;;;;4975393;28;19926;-67
2022/09/16 04:36:19;;;;;;;;;;;12.40;99.90;;;;;;4977603;28;19926;-73
2022/09/16 04:38:46;;;;;;;;;;;12.40;99.90;;;;;;4980420;28;19976;-67
2022/09/16 04:41:14;;;;;;;;;;;12.40;99.90;;;;;;4980861;28;19965;-66
2022/09/16 04:43:41;;;;;;;;;;;12.50;99.90;;;;;;4982208;28;19941;-67
2022/09/16 04:46:08;;;;;;;;;;;12.50;99.90;;;;;;4975029;28;20308;-67
2022/09/16 04:48:35;;;;;;;;;;;12.50;99.90;;;;;;4979184;28;19965;-68
2022/09/16 04:51:03;;;;;;;;;;;12.50;99.90;;;;;;4975160;28;20396;-73
2022/09/16 04:53:31;;;;;;;;;;;12.50;99.90;;;;;;4972025;28;19926;-69
2022/09/16 04:56:02;;;;;;;;;;;12.50;99.90;;;;;;4970460;28;20035;-66
2022/09/16 04:58:29;;;;;;;;;;;12.40;99.90;;;;;;4976383;28;19977;-74
2022/09/16 05:00:56;;;;;;;;;;;12.40;99.90;;;;;;4975695;28;19926;-70
2022/09/16 05:03:23;;;;;;;;;;;12.40;99.90;;;;;;4968827;28;19953;-68
2022/09/16 05:05:50;;;;;;;;;;;12.40;99.90;;;;;;4978352;28;20352;-68
2022/09/16 05:08:18;;;;;;;;;;;12.40;99.90;;;;;;4974910;28;20263;-68
2022/09/16 05:10:47;;;;;;;;;;;12.40;99.90;;;;;;4975225;28;19940;-67
2022/09/16 05:13:13;;;;;;;;;;;12.40;99.90;;;;;;4974411;28;19926;-68
2022/09/16 05:15:40;;;;;;;;;;;12.40;99.90;;;;;;4974172;28;19926;-69
2022/09/16 05:18:07;;;;;;;;;;;12.40;99.90;;;;;;4974146;28;19980;-69
2022/09/16 05:20:35;;;;;;;;;;;12.30;99.90;;;;;;4974266;28;19926;-69
2022/09/16 05:23:02;;;;;;;;;;;12.30;99.90;;;;;;4974516;28;20010;-69
2022/09/16 05:25:28;;;;;;;;;;;12.40;99.90;;;;;;4977524;28;19930;-69
2022/09/16 05:27:57;;;;;;;;;;;12.40;99.90;;;;;;4974640;28;19972;-68
2022/09/16 05:30:24;;;;;;;;;;;12.40;99.90;;;;;;4970759;28;19984;-68
2022/09/16 05:32:52;;;;;;;;;;;12.50;99.90;;;;;;4976792;28;19926;-69
2022/09/16 05:35:19;;;;;;;;;;;12.50;99.90;;;;;;4975786;28;19926;-68
2022/09/16 05:37:46;;;;;;;;;;;12.50;99.90;;;;;;4974198;28;19980;-73
2022/09/16 05:40:13;;;;;;;;;;;12.50;99.90;;;;;;4974382;28;19925;-66
2022/09/16 05:42:40;;;;;;;;;;;12.50;99.90;;;;;;4976970;28;19925;-68
2022/09/16 05:45:09;;;;;;;;;;;12.50;99.90;;;;;;4974119;28;19929;-68
2022/09/16 05:47:35;;;;;;;;;;;12.40;99.90;;;;;;4974185;28;20340;-67
2022/09/16 05:50:02;;;;;;;;;;;12.40;99.90;;;;;;4973892;28;19933;-68
2022/09/16 05:52:29;;;;;;;;;;;12.40;99.90;;;;;;4975130;28;19926;-65
2022/09/16 05:54:56;;;;;;;;;;;12.40;99.90;;;;;;4976471;28;19926;-65
2022/09/16 05:57:23;;;;;;;;;;;12.40;99.90;;;;;;4973426;28;19926;-65
2022/09/16 05:59:50;;;;;;;;;;;12.50;99.90;;;;;;4976245;28;20278;-65
2022/09/16 06:02:18;;;;;;;;;;;12.50;99.90;;;;;;4974123;28;19992;-65
2022/09/16 06:04:45;;;;;;;;;;;12.50;99.90;;;;;;4974055;28;19930;-65
2022/09/16 06:07:12;;;;;;;;;;;12.50;99.90;;;;;;4973413;28;20372;-65
2022/09/16 06:09:38;;;;;;;;;;;12.50;99.90;;;;;;4973746;28;19930;-65
2022/09/16 06:12:05;;;;;;;;;;;12.60;99.90;;;;;;4976828;28;19930;-65
2022/09/16 06:14:32;;;;;;;;;;;12.60;99.90;;;;;;4973612;28;19953;-65
2022/09/16 06:16:59;;;;;;;;;;;12.70;99.90;;;;;;4973545;28;19926;-65
2022/09/16 06:19:27;;;;;;;;;;;12.70;99.90;;;;;;4973402;28;20034;-65
2022/09/16 06:21:54;;;;;;;;;;;12.70;99.90;;;;;;4973708;28;19926;-65
2022/09/16 06:24:21;;;;;;;;;;;12.70;99.90;;;;;;4973471;28;19933;-67
2022/09/16 06:26:48;;;;;;;;;;;12.70;99.90;;;;;;4974232;28;19925;-64
2022/09/16 06:29:15;;;;;;;;;;;12.70;99.90;;;;;;4973016;28;19929;-65
2022/09/16 06:31:42;;;;;;;;;;;12.80;99.90;;;;;;4974212;28;20016;-65
2022/09/16 06:34:13;;;;;;;;;;;12.80;99.90;;;;;;4973626;28;19941;-68
2022/09/16 06:36:41;;;;;;;;;;;12.90;99.90;;;;;;4973635;28;20367;-64
2022/09/16 06:39:11;;;;;;;;;;;13.00;99.90;;;;;;4972610;28;19930;-67
2022/09/16 06:41:38;;;;;;;;;;;13.10;99.90;;;;;;4973701;28;19933;-67
2022/09/16 06:44:04;;;;;;;;;;;13.20;99.90;;;;;;4973632;28;19925;-65
2022/09/16 06:46:31;;;;;;;;;;;13.40;99.90;;;;;;4973764;28;19926;-65
2022/09/16 06:48:58;;;;;;;;;;;13.50;99.90;;;;;;4973703;28;19926;-66
2022/09/16 06:51:25;;;;;;;;;;;13.50;99.90;;;;;;4974089;28;19926;-65
2022/09/16 06:53:55;;;;;;;;;;;13.50;99.90;;;;;;4969656;28;20286;-65
2022/09/16 06:56:21;;;;;;;;;;;13.50;99.90;;;;;;4973792;28;20405;-65
2022/09/16 06:58:49;;;;;;;;;;;13.50;99.90;;;;;;4972642;28;19996;-65
2022/09/16 07:01:16;;;;;;;;;;;13.50;99.90;;;;;;4973306;28;20025;-66
2022/09/16 07:03:43;;;;;;;;;;;13.60;99.90;;;;;;4975080;28;19930;-65
2022/09/16 07:06:11;;;;;;;;;;;13.60;99.90;;;;;;4990638;28;20012;-68
2022/09/16 07:08:38;;;;;;;;;;;13.60;99.90;;;;;;4990197;28;19972;-66
2022/09/16 07:11:07;;;;;;;;;;;13.70;99.90;;;;;;4973174;28;19980;-66
2022/09/16 07:13:34;;;;;;;;;;;13.60;99.90;;;;;;4972374;28;20016;-66
2022/09/16 07:16:01;;;;;;;;;;;13.70;99.90;;;;;;4990203;28;20393;-65
2022/09/16 07:18:29;;;;;;;;;;;13.60;99.90;;;;;;4990000;28;19926;-66
2022/09/16 07:21:00;;;;;;;;;;;13.60;99.90;;;;;;4976284;28;19926;-66
2022/09/16 07:23:28;;;;;;;;;;;13.60;99.90;;;;;;4973808;28;20436;-65
2022/09/16 07:25:59;;;;;;;;;;;13.60;99.90;;;;;;4976887;28;19976;-65
2022/09/16 07:28:27;;;;;;;;;;;13.70;99.90;;;;;;4976178;28;19926;-66
2022/09/16 07:30:53;;;;;;;;;;;13.70;99.90;;;;;;4976107;28;20376;-65
2022/09/16 07:33:20;;;;;;;;;;;13.60;99.90;;;;;;4976554;28;20397;-65
2022/09/16 07:35:47;;;;;;;;;;;13.60;99.90;;;;;;4976768;28;20051;-65
2022/09/16 07:38:13;;;;;;;;;;;13.70;99.90;;;;;;4993245;28;20024;-67
2022/09/16 07:40:40;;;;;;;;;;;13.60;99.90;;;;;;4976092;28;19969;-65
